createdAt,value
2018-12-20T00:01:34.684Z,0.86
2018-12-20T00:12:35.518Z,0.65
2018-12-20T00:23:35.038Z,0.68
2018-12-20T00:34:33.862Z,0.75
2018-12-20T00:45:34.958Z,0.72
2018-12-20T00:56:40.374Z,0.74
2018-12-20T01:07:42.878Z,0.77
2018-12-20T01:18:44.915Z,0.74
2018-12-20T01:29:43.737Z,0.75
2018-12-20T01:40:45.251Z,0.68
2018-12-20T01:51:44.657Z,0.71
2018-12-20T02:02:47.719Z,0.75
2018-12-20T02:13:48.085Z,0.64
2018-12-20T02:24:51.364Z,0.64
2018-12-20T02:35:55.614Z,0.59
2018-12-20T02:46:55.767Z,0.43
2018-12-20T02:57:56.472Z,0.35
2018-12-20T03:09:00.051Z,0.49
2018-12-20T03:20:04.331Z,0.39
2018-12-20T03:31:03.874Z,0.56
2018-12-20T03:42:04.974Z,0.35
2018-12-20T03:53:08.652Z,0.36
2018-12-20T04:04:10.424Z,0.28
2018-12-20T04:15:13.438Z,0.22
2018-12-20T04:26:12.224Z,0.29
2018-12-20T04:37:13.559Z,0.28
2018-12-20T04:48:13.266Z,0.09
2018-12-20T04:59:12.574Z,0.18
2018-12-20T05:10:16.963Z,0.22
2018-12-20T05:21:20.814Z,0.18
2018-12-20T05:32:19.518Z,0.14
2018-12-20T05:43:21.390Z,0.27
2018-12-20T05:54:26.394Z,0.36
2018-12-20T06:05:27.791Z,0.46
2018-12-20T06:16:32.350Z,0.25
2018-12-20T06:27:35.511Z,0.29
2018-12-20T06:38:38.325Z,0.52
2018-12-20T06:49:39.998Z,0.43
2018-12-20T07:00:43.998Z,0.50
2018-12-20T07:11:46.469Z,0.31
2018-12-20T07:22:47.188Z,0.16
2018-12-20T07:33:48.793Z,0.09
2018-12-20T07:44:50.089Z,0.11
2018-12-20T07:55:50.996Z,-0.02
2018-12-20T08:06:50.476Z,0.10
2018-12-20T08:17:54.882Z,0.21
2018-12-20T08:28:59.974Z,0.21
2018-12-20T08:40:03.951Z,0.35
2018-12-20T08:51:08.661Z,0.52
2018-12-20T09:02:08.944Z,0.68
2018-12-20T09:13:14.780Z,0.89
2018-12-20T09:24:20.255Z,1.10
2018-12-20T09:35:24.900Z,1.36
2018-12-20T09:46:30.290Z,1.99
2018-12-20T09:57:34.586Z,1.76
2018-12-20T10:08:34.926Z,2.02
2018-12-20T10:19:37.070Z,2.01
2018-12-20T10:30:39.539Z,1.79
2018-12-20T10:41:43.915Z,1.82
2018-12-20T10:52:44.425Z,2.19
2018-12-20T11:03:41.500Z,2.09
2018-12-20T11:14:45.860Z,2.57
2018-12-20T11:25:47.933Z,2.57
2018-12-20T11:36:48.006Z,2.78
2018-12-20T11:47:51.458Z,2.77
2018-12-20T11:58:54.769Z,2.95
2018-12-20T12:09:58.402Z,2.68
2018-12-20T12:20:57.009Z,2.99
2018-12-20T12:31:58.276Z,2.95
2018-12-20T12:42:58.535Z,3.59
2018-12-20T12:53:58.840Z,3.82
2018-12-20T13:05:01.749Z,4.23
2018-12-20T13:16:05.094Z,4.26
2018-12-20T13:27:07.938Z,4.10
2018-12-20T13:38:06.889Z,4.07
2018-12-20T13:49:06.186Z,4.00
2018-12-20T14:00:08.484Z,3.68
2018-12-20T14:10:58.053Z,3.28
2018-12-20T14:21:56.148Z,2.77
2018-12-20T14:32:57.308Z,2.70
2018-12-20T14:43:55.317Z,2.60
2018-12-20T14:54:52.206Z,2.53
2018-12-20T15:05:53.636Z,2.39
2018-12-20T15:16:54.782Z,2.35
2018-12-20T15:27:57.569Z,2.17
2018-12-20T15:38:54.479Z,2.13
2018-12-20T15:49:55.760Z,2.03
2018-12-20T16:00:55.647Z,1.99
2018-12-20T16:11:55.579Z,1.95
2018-12-20T16:22:56.683Z,2.01
2018-12-20T16:33:56.282Z,1.92
2018-12-20T16:44:59.076Z,2.01
2018-12-20T16:55:36.286Z,1.90
2018-12-20T17:06:35.346Z,1.92
2018-12-20T17:17:38.033Z,1.87
2018-12-20T17:28:41.266Z,1.74
2018-12-20T17:39:38.828Z,1.76
2018-12-20T17:50:36.823Z,1.83
2018-12-20T18:01:37.022Z,1.73
2018-12-20T18:12:41.692Z,1.74
2018-12-20T18:23:44.797Z,1.80
2018-12-20T18:34:49.490Z,1.72
2018-12-20T18:45:52.496Z,1.66
2018-12-20T18:56:52.763Z,1.74
2018-12-20T19:07:57.440Z,1.55
2018-12-20T19:19:01.611Z,1.65
2018-12-20T19:30:05.596Z,1.65
2018-12-20T19:41:05.411Z,1.66
2018-12-20T19:52:09.025Z,1.66
2018-12-20T20:03:13.390Z,1.59
2018-12-20T20:14:17.695Z,1.58
2018-12-20T20:25:21.975Z,1.46
2018-12-20T20:36:26.012Z,1.41
2018-12-20T20:47:23.477Z,1.58
2018-12-20T20:58:21.216Z,1.58
2018-12-20T21:09:20.186Z,1.40
2018-12-20T21:20:30.503Z,1.50
2018-12-20T21:31:28.070Z,1.52
2018-12-20T21:42:32.373Z,1.30
2018-12-20T21:53:32.207Z,1.04
2018-12-20T22:04:31.309Z,0.75
2018-12-20T22:15:30.527Z,0.69
2018-12-20T22:26:35.203Z,0.62
2018-12-20T22:37:33.628Z,0.62
2018-12-20T22:48:31.681Z,0.40
2018-12-20T22:59:36.467Z,0.59
2018-12-20T23:10:39.773Z,0.83
2018-12-20T23:21:44.416Z,0.87
2018-12-20T23:32:47.451Z,0.86
2018-12-20T23:43:50.399Z,0.89
2018-12-20T23:54:55.066Z,0.87
